Caracol, Brazil
Current Conditions -  °F | °C
As of 6:00 AM on Saturday 25 Oct 2014 (Local Time) from SBCG Reporting Station
Broken Clouds Broken Clouds  
Wind Chill: 66°   Ceiling: 10000
Heat Index: 66°   Visibility: 6mi
Dew Point: 66°   Wind: 2mph
Humidity: 100%   Direction: 270°W
Pressure: 29.91"   Gusts: NA
Location:  22.01°S, 57.02°W
Report Text: SBCG 250900Z 27002KT 9999 FEW020 BKN100 19/19 Q1013
Loading
Personal Weather Stations






























Interactive Weather Map
Tropical Storm Tracking
New forecast layout! Learn more

10-Day Weather Forecast

Advertisements
Track Severe Weather on mobile